Terminal Aerodrome Forecast
Issued by NWS

Current Version | Previous Version | Graphics & Text | Print | Product List | Glossary On
Versions: 1 2 3 4 5 6 7 8 9 10 11 12 13 14 15 16 17 18 19 20 21
000
FTUS41 KILN 212339
TAFLCK
TAF
KLCK 212339Z 2200/2224 24003KT P6SM FEW050 OVC250
     FM221400 25009KT P6SM SCT040 BKN150
     FM221700 24011KT P6SM VCTS SCT040 BKN150CB=

USA.gov is the U.S. government's official web portal to all federal, state and local government web resources and services.